Terminal Aerodrome Forecast
Issued by NWS

Home | Current Version | Previous Version | Text Only | Print | Product List | Glossary On
Versions: 1 2 3 4 5 6 7 8 9 10 11 12 13 14 15 16 17 18
000
FTUS43 KMQT 151133 AAB
TAFCMX
TAF AMD
KCMX 151133Z 1512/1612 29007KT 5SM -SHSN OVC021
     FM151400 34011G20KT 4SM -SHSN OVC020
     FM151600 34011G21KT 2SM -SHSN OVC020
     FM151900 33011G19KT 3SM -SHSN OVC020
     FM160000 34009KT 4SM -SHSN OVC025=

USA.gov is the U.S. government's official web portal to all federal, state and local government web resources and services.